LWOH Airport Information

Runway Information
Runway 02 Length 8366 ft width 140 ft
Elevation 2284 ft Threshold 0 ft Heading 18
Runway 20 Length 8366 ft Width 140 ft
Elevation 2313 ft Threshold 0 ft Heading 198
Airport Frequencies
Type APP Name APP Frequency 119.2 MHZ
Type TWR Name TWR Frequency 119.2 MHZ
Airport Navaids
Type NDB Name Ohrid Frequency 432 KHZ
Type VOR-DME Name Ohrid Frequency 112500 KHZ
Airport Weather Information & NOTAM
ADDS - METARS form results

(0035 UTC 17 June 2019)
Data provider http://aviationweather.gov/metar/data/
 
Forecast for: LWOH (OHRID , MK)
Text: TAF LWOH 162330Z 1700/1724 VRB02KT 9999 FEW050 SCT090
Forecast period: 0000 UTC 17 June 2019 to 0000 UTC 18 June 2019
Forecast type: FROM: standard forecast or significant change
Winds: variable direction winds at 2 MPH (2 knots; 1.0 m/s)
Visibility: 6 or more miles 10+ km)
Ceiling: at least 12,000 feet AGL
Clouds: few clouds at 5000 feet AGL
scattered clouds at 9000 feet AGL
Weather: no significant weather forecast for this period
Text: TEMPO 1710/1718 VRB15KT TSRA SCT033CB BKN040
Forecast period: 1000 to 1800 UTC 17 June 2019
Forecast type: TEMPORARY: The following changes expected for less than half the time period
Winds: variable direction winds at 17 MPH (15 knots; 7.7 m/s)
Visibility: missing
Ceiling: 4000 feet AGL
Clouds: scattered clouds at 3300 feet AGL
broken clouds at 4000 feet AGL
Weather: TSRA  (rain associated with thunderstorm(s))